sensor_id;sensor_type;location;lat;lon;timestamp;pressure;altitude;pressure_sealevel;temperature;humidity
72370;BME280;60343;-32.030;115.880;2023-05-23T00:00:31;102144.78;;;16.30;57.16
72370;BME280;60343;-32.030;115.880;2023-05-23T00:03:05;102143.44;;;16.34;55.62
72370;BME280;60343;-32.030;115.880;2023-05-23T00:05:40;102149.63;;;16.43;55.04
72370;BME280;60343;-32.030;115.880;2023-05-23T00:08:15;102136.59;;;16.46;54.09
72370;BME280;60343;-32.030;115.880;2023-05-23T00:10:55;102135.22;;;16.50;53.78
72370;BME280;60343;-32.030;115.880;2023-05-23T00:13:29;102125.91;;;16.53;54.16
72370;BME280;60343;-32.030;115.880;2023-05-23T00:16:06;102131.97;;;16.55;54.08
72370;BME280;60343;-32.030;115.880;2023-05-23T00:18:41;102124.03;;;16.61;54.22
72370;BME280;60343;-32.030;115.880;2023-05-23T00:21:16;102133.94;;;16.69;52.71
72370;BME280;60343;-32.030;115.880;2023-05-23T00:23:51;102139.28;;;16.77;53.18
72370;BME280;60343;-32.030;115.880;2023-05-23T00:26:32;102140.81;;;16.80;53.62
72370;BME280;60343;-32.030;115.880;2023-05-23T00:29:06;102138.16;;;16.94;52.76
72370;BME280;60343;-32.030;115.880;2023-05-23T00:31:42;102149.81;;;16.95;52.70
72370;BME280;60343;-32.030;115.880;2023-05-23T00:34:18;102151.69;;;16.94;52.94
72370;BME280;60343;-32.030;115.880;2023-05-23T00:36:52;102144.41;;;16.95;52.52
72370;BME280;60343;-32.030;115.880;2023-05-23T00:39:28;102139.34;;;16.92;53.18
72370;BME280;60343;-32.030;115.880;2023-05-23T00:42:08;102144.88;;;16.98;53.64
72370;BME280;60343;-32.030;115.880;2023-05-23T00:44:43;102150.25;;;16.84;53.58
72370;BME280;60343;-32.030;115.880;2023-05-23T00:47:18;102144.63;;;16.85;53.95
72370;BME280;60343;-32.030;115.880;2023-05-23T00:49:52;102145.47;;;16.86;54.79
72370;BME280;60343;-32.030;115.880;2023-05-23T00:52:27;102138.03;;;16.88;54.61
72370;BME280;60343;-32.030;115.880;2023-05-23T00:55:01;102146.63;;;16.91;53.77
72370;BME280;60343;-32.030;115.880;2023-05-23T00:57:42;102141.03;;;16.93;53.83
72370;BME280;60343;-32.030;115.880;2023-05-23T01:00:17;102140.31;;;16.99;52.67
72370;BME280;60343;-32.030;115.880;2023-05-23T01:02:53;102140.03;;;16.94;53.30
72370;BME280;60343;-32.030;115.880;2023-05-23T01:05:27;102139.34;;;16.92;53.48
72370;BME280;60343;-32.030;115.880;2023-05-23T01:08:02;102147.47;;;16.92;55.49
72370;BME280;60343;-32.030;115.880;2023-05-23T01:10:37;102141.75;;;16.87;56.68
72370;BME280;60343;-32.030;115.880;2023-05-23T01:13:23;102139.41;;;16.84;58.40
72370;BME280;60343;-32.030;115.880;2023-05-23T01:16:06;102137.72;;;16.83;56.52
72370;BME280;60343;-32.030;115.880;2023-05-23T01:18:47;102136.22;;;16.80;57.79
72370;BME280;60343;-32.030;115.880;2023-05-23T01:21:25;102134.47;;;16.87;53.95
72370;BME280;60343;-32.030;115.880;2023-05-23T01:24:22;102130.94;;;16.87;54.41
72370;BME280;60343;-32.030;115.880;2023-05-23T01:27:21;102124.38;;;17.04;55.95
72370;BME280;60343;-32.030;115.880;2023-05-23T01:30:05;102135.53;;;17.01;57.19
72370;BME280;60343;-32.030;115.880;2023-05-23T01:32:41;102129.97;;;17.02;58.96
72370;BME280;60343;-32.030;115.880;2023-05-23T01:35:21;102139.38;;;17.06;60.85
72370;BME280;60343;-32.030;115.880;2023-05-23T01:37:57;102134.28;;;17.11;60.06
72370;BME280;60343;-32.030;115.880;2023-05-23T01:40:32;102138.97;;;17.17;56.91
72370;BME280;60343;-32.030;115.880;2023-05-23T01:43:06;102132.81;;;17.24;57.34
72370;BME280;60343;-32.030;115.880;2023-05-23T01:45:47;102116.78;;;17.37;57.34
72370;BME280;60343;-32.030;115.880;2023-05-23T01:48:23;102106.22;;;17.42;57.42
72370;BME280;60343;-32.030;115.880;2023-05-23T01:50:59;102114.75;;;17.53;58.14
72370;BME280;60343;-32.030;115.880;2023-05-23T01:53:35;102104.03;;;17.75;53.31
72370;BME280;60343;-32.030;115.880;2023-05-23T01:56:10;102103.59;;;18.07;52.85
72370;BME280;60343;-32.030;115.880;2023-05-23T01:58:45;102098.34;;;18.77;52.45
72370;BME280;60343;-32.030;115.880;2023-05-23T02:01:25;102096.47;;;19.55;50.21
72370;BME280;60343;-32.030;115.880;2023-05-23T02:04:00;102095.56;;;19.82;47.75
72370;BME280;60343;-32.030;115.880;2023-05-23T02:06:35;102082.75;;;20.10;47.06
72370;BME280;60343;-32.030;115.880;2023-05-23T02:09:09;102079.69;;;20.33;46.36
72370;BME280;60343;-32.030;115.880;2023-05-23T02:11:43;102070.94;;;20.51;46.55
72370;BME280;60343;-32.030;115.880;2023-05-23T02:14:18;102082.22;;;20.48;44.93
72370;BME280;60343;-32.030;115.880;2023-05-23T02:16:58;102080.56;;;20.40;46.08
72370;BME280;60343;-32.030;115.880;2023-05-23T02:19:33;102068.41;;;20.36;46.27
72370;BME280;60343;-32.030;115.880;2023-05-23T02:22:07;102065.72;;;20.63;46.66
72370;BME280;60343;-32.030;115.880;2023-05-23T02:24:42;102069.69;;;20.73;45.04
72370;BME280;60343;-32.030;115.880;2023-05-23T02:27:16;102071.16;;;20.89;45.35
72370;BME280;60343;-32.030;115.880;2023-05-23T02:29:51;102072.00;;;21.35;44.07
72370;BME280;60343;-32.030;115.880;2023-05-23T02:32:30;102070.13;;;21.43;42.31
72370;BME280;60343;-32.030;115.880;2023-05-23T02:35:05;102066.03;;;21.71;43.69
72370;BME280;60343;-32.030;115.880;2023-05-23T02:37:40;102067.91;;;21.71;43.61
72370;BME280;60343;-32.030;115.880;2023-05-23T02:40:15;102051.78;;;21.63;41.90
72370;BME280;60343;-32.030;115.880;2023-05-23T02:42:50;102041.34;;;21.53;41.12
72370;BME280;60343;-32.030;115.880;2023-05-23T02:45:24;102030.59;;;21.71;40.87
72370;BME280;60343;-32.030;115.880;2023-05-23T02:48:05;102026.88;;;22.10;40.54
72370;BME280;60343;-32.030;115.880;2023-05-23T02:50:39;102020.78;;;22.40;42.15
72370;BME280;60343;-32.030;115.880;2023-05-23T02:53:14;102013.41;;;22.78;40.59
72370;BME280;60343;-32.030;115.880;2023-05-23T02:55:49;102019.69;;;23.03;37.91
72370;BME280;60343;-32.030;115.880;2023-05-23T02:58:23;102015.59;;;23.13;39.68
72370;BME280;60343;-32.030;115.880;2023-05-23T03:00:58;102009.81;;;23.21;39.15
72370;BME280;60343;-32.030;115.880;2023-05-23T03:03:38;102012.75;;;23.19;39.23
72370;BME280;60343;-32.030;115.880;2023-05-23T03:06:12;101999.41;;;23.29;38.53
72370;BME280;60343;-32.030;115.880;2023-05-23T03:08:48;102004.31;;;23.45;39.96
72370;BME280;60343;-32.030;115.880;2023-05-23T03:11:23;102013.03;;;23.54;40.29
72370;BME280;60343;-32.030;115.880;2023-05-23T03:13:58;102006.25;;;23.75;39.11
72370;BME280;60343;-32.030;115.880;2023-05-23T03:16:32;102000.00;;;24.16;38.37
72370;BME280;60343;-32.030;115.880;2023-05-23T03:19:12;101992.94;;;24.38;39.07
72370;BME280;60343;-32.030;115.880;2023-05-23T03:21:46;101995.13;;;24.59;35.70
72370;BME280;60343;-32.030;115.880;2023-05-23T03:24:21;101990.72;;;24.70;38.67
72370;BME280;60343;-32.030;115.880;2023-05-23T03:26:55;101987.31;;;24.98;37.47
72370;BME280;60343;-32.030;115.880;2023-05-23T03:29:30;101983.34;;;24.82;34.59
72370;BME280;60343;-32.030;115.880;2023-05-23T03:32:04;101981.19;;;24.61;35.89
72370;BME280;60343;-32.030;115.880;2023-05-23T03:34:45;101982.22;;;24.36;38.23
72370;BME280;60343;-32.030;115.880;2023-05-23T03:37:19;101988.63;;;24.19;39.47
72370;BME280;60343;-32.030;115.880;2023-05-23T03:39:53;101977.69;;;24.01;37.42
72370;BME280;60343;-32.030;115.880;2023-05-23T03:42:28;101977.75;;;23.82;39.66
72370;BME280;60343;-32.030;115.880;2023-05-23T03:45:03;101975.19;;;23.69;39.85
72370;BME280;60343;-32.030;115.880;2023-05-23T03:47:38;101969.22;;;23.61;40.09
72370;BME280;60343;-32.030;115.880;2023-05-23T03:50:18;101956.22;;;23.56;40.16
72370;BME280;60343;-32.030;115.880;2023-05-23T03:52:52;101952.81;;;23.61;40.42
72370;BME280;60343;-32.030;115.880;2023-05-23T03:55:27;101946.28;;;23.62;40.41
72370;BME280;60343;-32.030;115.880;2023-05-23T03:58:01;101938.72;;;23.75;40.69
72370;BME280;60343;-32.030;115.880;2023-05-23T04:00:36;101938.06;;;23.91;40.29
72370;BME280;60343;-32.030;115.880;2023-05-23T04:03:11;101925.84;;;24.06;40.31
72370;BME280;60343;-32.030;115.880;2023-05-23T04:05:51;101918.97;;;24.15;39.23
72370;BME280;60343;-32.030;115.880;2023-05-23T04:08:25;101919.97;;;24.20;38.26
72370;BME280;60343;-32.030;115.880;2023-05-23T04:11:00;101905.56;;;24.25;36.75
72370;BME280;60343;-32.030;115.880;2023-05-23T04:13:34;101906.41;;;24.25;36.55
72370;BME280;60343;-32.030;115.880;2023-05-23T04:16:10;101894.75;;;24.18;35.29
72370;BME280;60343;-32.030;115.880;2023-05-23T04:18:45;101887.97;;;24.32;36.49
72370;BME280;60343;-32.030;115.880;2023-05-23T04:21:26;101883.81;;;24.42;36.65
72370;BME280;60343;-32.030;115.880;2023-05-23T04:24:01;101879.53;;;24.46;35.10
72370;BME280;60343;-32.030;115.880;2023-05-23T04:26:35;101864.16;;;24.56;34.95
72370;BME280;60343;-32.030;115.880;2023-05-23T04:29:10;101860.25;;;24.64;35.09
72370;BME280;60343;-32.030;115.880;2023-05-23T04:31:44;101860.09;;;24.70;34.99
72370;BME280;60343;-32.030;115.880;2023-05-23T04:34:19;101849.50;;;24.74;33.07
72370;BME280;60343;-32.030;115.880;2023-05-23T04:37:00;101836.38;;;24.76;31.77
72370;BME280;60343;-32.030;115.880;2023-05-23T04:39:36;101829.34;;;24.92;32.55
72370;BME280;60343;-32.030;115.880;2023-05-23T04:42:10;101815.88;;;25.02;32.53
72370;BME280;60343;-32.030;115.880;2023-05-23T04:44:45;101807.75;;;25.07;34.40
72370;BME280;60343;-32.030;115.880;2023-05-23T04:47:19;101801.06;;;25.14;33.22
72370;BME280;60343;-32.030;115.880;2023-05-23T04:49:55;101798.50;;;25.25;33.06
72370;BME280;60343;-32.030;115.880;2023-05-23T04:52:35;101799.78;;;25.34;33.41
72370;BME280;60343;-32.030;115.880;2023-05-23T04:55:09;101801.28;;;25.41;33.46
72370;BME280;60343;-32.030;115.880;2023-05-23T04:57:44;101796.28;;;25.38;31.41
72370;BME280;60343;-32.030;115.880;2023-05-23T05:00:19;101803.25;;;25.29;32.23
72370;BME280;60343;-32.030;115.880;2023-05-23T05:02:53;101794.38;;;25.10;31.07
72370;BME280;60343;-32.030;115.880;2023-05-23T05:05:28;101796.88;;;25.12;33.36
72370;BME280;60343;-32.030;115.880;2023-05-23T05:08:08;101796.91;;;25.00;32.34
72370;BME280;60343;-32.030;115.880;2023-05-23T05:10:46;101796.13;;;25.00;32.34
72370;BME280;60343;-32.030;115.880;2023-05-23T05:13:21;101798.88;;;24.76;31.41
72370;BME280;60343;-32.030;115.880;2023-05-23T05:15:55;101797.56;;;24.79;31.78
72370;BME280;60343;-32.030;115.880;2023-05-23T05:18:30;101792.47;;;24.71;32.27
72370;BME280;60343;-32.030;115.880;2023-05-23T05:21:04;101783.91;;;24.56;31.97
72370;BME280;60343;-32.030;115.880;2023-05-23T05:23:44;101786.94;;;24.54;33.07
72370;BME280;60343;-32.030;115.880;2023-05-23T05:26:19;101784.09;;;24.38;32.99
72370;BME280;60343;-32.030;115.880;2023-05-23T05:28:54;101779.06;;;24.46;34.57
72370;BME280;60343;-32.030;115.880;2023-05-23T05:31:28;101784.09;;;24.38;33.13
72370;BME280;60343;-32.030;115.880;2023-05-23T05:34:03;101781.00;;;24.34;34.00
72370;BME280;60343;-32.030;115.880;2023-05-23T05:36:38;101790.38;;;24.26;34.39
72370;BME280;60343;-32.030;115.880;2023-05-23T05:39:20;101784.19;;;24.31;32.54
72370;BME280;60343;-32.030;115.880;2023-05-23T05:41:54;101790.28;;;24.21;34.06
72370;BME280;60343;-32.030;115.880;2023-05-23T05:44:30;101793.00;;;24.21;34.31
72370;BME280;60343;-32.030;115.880;2023-05-23T05:47:04;101800.47;;;24.03;35.66
72370;BME280;60343;-32.030;115.880;2023-05-23T05:49:39;101800.22;;;23.81;36.34
72370;BME280;60343;-32.030;115.880;2023-05-23T05:52:14;101803.63;;;23.65;37.28
72370;BME280;60343;-32.030;115.880;2023-05-23T05:54:54;101807.19;;;23.65;37.84
72370;BME280;60343;-32.030;115.880;2023-05-23T05:57:28;101808.53;;;23.44;40.18
72370;BME280;60343;-32.030;115.880;2023-05-23T06:00:06;101816.00;;;23.37;41.47
72370;BME280;60343;-32.030;115.880;2023-05-23T06:02:42;101816.25;;;23.36;42.36
72370;BME280;60343;-32.030;115.880;2023-05-23T06:05:18;101817.50;;;23.22;44.93
72370;BME280;60343;-32.030;115.880;2023-05-23T06:07:53;101826.47;;;23.10;46.06
72370;BME280;60343;-32.030;115.880;2023-05-23T06:10:33;101819.66;;;23.01;47.44
72370;BME280;60343;-32.030;115.880;2023-05-23T06:13:07;101832.50;;;22.83;47.98
72370;BME280;60343;-32.030;115.880;2023-05-23T06:15:42;101829.88;;;22.69;48.73
72370;BME280;60343;-32.030;115.880;2023-05-23T06:18:17;101830.94;;;22.68;49.12
72370;BME280;60343;-32.030;115.880;2023-05-23T06:20:51;101821.53;;;22.64;49.33
72370;BME280;60343;-32.030;115.880;2023-05-23T06:23:26;101818.81;;;22.46;50.55
72370;BME280;60343;-32.030;115.880;2023-05-23T06:26:06;101822.53;;;22.52;50.81
72370;BME280;60343;-32.030;115.880;2023-05-23T06:28:41;101826.22;;;22.39;51.50
72370;BME280;60343;-32.030;115.880;2023-05-23T06:31:15;101831.09;;;22.37;51.84
72370;BME280;60343;-32.030;115.880;2023-05-23T06:33:50;101829.63;;;22.35;51.68
72370;BME280;60343;-32.030;115.880;2023-05-23T06:36:24;101835.34;;;22.33;52.17
72370;BME280;60343;-32.030;115.880;2023-05-23T06:38:59;101837.91;;;22.28;52.84
72370;BME280;60343;-32.030;115.880;2023-05-23T06:41:39;101851.63;;;22.15;53.75
72370;BME280;60343;-32.030;115.880;2023-05-23T06:44:13;101858.72;;;22.22;53.36
72370;BME280;60343;-32.030;115.880;2023-05-23T06:46:48;101863.09;;;22.23;53.88
72370;BME280;60343;-32.030;115.880;2023-05-23T06:49:24;101861.13;;;22.12;54.43
72370;BME280;60343;-32.030;115.880;2023-05-23T06:51:58;101862.75;;;22.13;55.44
72370;BME280;60343;-32.030;115.880;2023-05-23T06:54:33;101867.47;;;22.06;56.31
72370;BME280;60343;-32.030;115.880;2023-05-23T06:57:13;101890.19;;;21.94;57.90
72370;BME280;60343;-32.030;115.880;2023-05-23T06:59:48;101901.16;;;21.80;57.17
72370;BME280;60343;-32.030;115.880;2023-05-23T07:02:23;101906.38;;;21.51;54.13
72370;BME280;60343;-32.030;115.880;2023-05-23T07:04:57;101895.13;;;21.40;53.36
72370;BME280;60343;-32.030;115.880;2023-05-23T07:07:32;101910.66;;;21.33;50.21
72370;BME280;60343;-32.030;115.880;2023-05-23T07:10:07;101921.59;;;21.27;49.08
72370;BME280;60343;-32.030;115.880;2023-05-23T07:12:47;101929.81;;;21.01;51.04
72370;BME280;60343;-32.030;115.880;2023-05-23T07:15:22;101903.91;;;20.59;50.51
72370;BME280;60343;-32.030;115.880;2023-05-23T07:17:56;101901.41;;;20.64;51.64
72370;BME280;60343;-32.030;115.880;2023-05-23T07:20:33;101928.84;;;20.42;51.20
72370;BME280;60343;-32.030;115.880;2023-05-23T07:23:07;101920.44;;;20.11;53.56
72370;BME280;60343;-32.030;115.880;2023-05-23T07:25:42;101923.31;;;19.83;56.26
72370;BME280;60343;-32.030;115.880;2023-05-23T07:28:27;101912.19;;;19.58;55.95
72370;BME280;60343;-32.030;115.880;2023-05-23T07:31:01;101913.56;;;19.41;56.13
72370;BME280;60343;-32.030;115.880;2023-05-23T07:33:36;101935.66;;;19.25;57.88
72370;BME280;60343;-32.030;115.880;2023-05-23T07:36:11;101920.19;;;19.32;57.52
72370;BME280;60343;-32.030;115.880;2023-05-23T07:38:45;101934.16;;;19.22;59.05
72370;BME280;60343;-32.030;115.880;2023-05-23T07:41:20;101918.09;;;19.27;57.58
72370;BME280;60343;-32.030;115.880;2023-05-23T07:44:00;101917.28;;;19.34;57.61
72370;BME280;60343;-32.030;115.880;2023-05-23T07:46:36;101922.31;;;19.37;58.59
72370;BME280;60343;-32.030;115.880;2023-05-23T07:49:10;101901.19;;;19.25;59.90
72370;BME280;60343;-32.030;115.880;2023-05-23T07:51:45;101910.19;;;19.26;59.15
72370;BME280;60343;-32.030;115.880;2023-05-23T07:54:19;101909.47;;;19.11;60.99
72370;BME280;60343;-32.030;115.880;2023-05-23T07:56:54;101906.53;;;19.12;61.67
72370;BME280;60343;-32.030;115.880;2023-05-23T07:59:34;101898.97;;;19.01;62.09
72370;BME280;60343;-32.030;115.880;2023-05-23T08:02:08;101917.34;;;18.99;62.28
72370;BME280;60343;-32.030;115.880;2023-05-23T08:04:43;101917.34;;;18.99;61.75
72370;BME280;60343;-32.030;115.880;2023-05-23T08:07:17;101911.06;;;18.99;62.46
72370;BME280;60343;-32.030;115.880;2023-05-23T08:09:52;101914.63;;;18.99;63.07
72370;BME280;60343;-32.030;115.880;2023-05-23T08:12:27;101928.88;;;19.08;63.22
72370;BME280;60343;-32.030;115.880;2023-05-23T08:15:07;101923.19;;;19.03;64.04
72370;BME280;60343;-32.030;115.880;2023-05-23T08:17:42;101926.34;;;19.06;64.27
72370;BME280;60343;-32.030;115.880;2023-05-23T08:20:17;101921.38;;;19.10;64.15
72370;BME280;60343;-32.030;115.880;2023-05-23T08:22:57;101907.38;;;19.13;64.06
72370;BME280;60343;-32.030;115.880;2023-05-23T08:25:32;101892.63;;;19.28;63.03
72370;BME280;60343;-32.030;115.880;2023-05-23T08:28:06;101891.41;;;19.38;63.18
72370;BME280;60343;-32.030;115.880;2023-05-23T08:30:47;101888.91;;;19.36;63.12
72370;BME280;60343;-32.030;115.880;2023-05-23T08:33:23;101892.22;;;19.32;63.28
72370;BME280;60343;-32.030;115.880;2023-05-23T08:35:58;101889.94;;;19.35;62.96
72370;BME280;60343;-32.030;115.880;2023-05-23T08:38:32;101891.63;;;19.36;62.54
72370;BME280;60343;-32.030;115.880;2023-05-23T08:41:11;101894.56;;;19.41;61.77
72370;BME280;60343;-32.030;115.880;2023-05-23T08:43:49;101885.63;;;19.54;60.84
72370;BME280;60343;-32.030;115.880;2023-05-23T08:46:29;101877.28;;;19.55;60.23
72370;BME280;60343;-32.030;115.880;2023-05-23T08:49:06;101866.88;;;19.65;60.49
72370;BME280;60343;-32.030;115.880;2023-05-23T08:51:42;101881.91;;;19.68;59.90
72370;BME280;60343;-32.030;115.880;2023-05-23T08:54:17;101878.16;;;19.69;60.18
72370;BME280;60343;-32.030;115.880;2023-05-23T08:56:52;101884.19;;;19.64;60.57
72370;BME280;60343;-32.030;115.880;2023-05-23T08:59:27;101880.03;;;19.68;60.57
72370;BME280;60343;-32.030;115.880;2023-05-23T09:02:10;101877.31;;;19.68;61.00
72370;BME280;60343;-32.030;115.880;2023-05-23T09:04:45;101870.84;;;19.76;59.55
72370;BME280;60343;-32.030;115.880;2023-05-23T09:07:20;101869.59;;;19.79;59.52
72370;BME280;60343;-32.030;115.880;2023-05-23T09:09:54;101865.19;;;19.78;60.45
72370;BME280;60343;-32.030;115.880;2023-05-23T09:12:29;101863.75;;;19.75;60.52
72370;BME280;60343;-32.030;115.880;2023-05-23T09:15:04;101862.50;;;19.84;60.79
72370;BME280;60343;-32.030;115.880;2023-05-23T09:17:44;101857.69;;;19.80;60.52
72370;BME280;60343;-32.030;115.880;2023-05-23T09:20:19;101857.47;;;19.75;61.10
72370;BME280;60343;-32.030;115.880;2023-05-23T09:22:55;101852.69;;;19.77;60.93
72370;BME280;60343;-32.030;115.880;2023-05-23T09:25:29;101859.75;;;19.78;61.90
72370;BME280;60343;-32.030;115.880;2023-05-23T09:28:04;101870.03;;;19.76;62.13
72370;BME280;60343;-32.030;115.880;2023-05-23T09:30:39;101877.75;;;19.79;62.96
72370;BME280;60343;-32.030;115.880;2023-05-23T09:33:20;101899.47;;;19.72;63.94
72370;BME280;60343;-32.030;115.880;2023-05-23T09:35:55;101909.84;;;19.49;67.97
72370;BME280;60343;-32.030;115.880;2023-05-23T09:38:30;101925.41;;;19.27;71.70
72370;BME280;60343;-32.030;115.880;2023-05-23T09:41:05;101924.09;;;18.75;75.53
72370;BME280;60343;-32.030;115.880;2023-05-23T09:43:48;101927.56;;;18.41;76.92
72370;BME280;60343;-32.030;115.880;2023-05-23T09:46:26;101913.22;;;17.98;80.50
72370;BME280;60343;-32.030;115.880;2023-05-23T09:49:15;101907.16;;;17.75;83.75
72370;BME280;60343;-32.030;115.880;2023-05-23T09:51:59;101904.13;;;17.64;85.37
72370;BME280;60343;-32.030;115.880;2023-05-23T09:54:34;101908.78;;;17.55;87.31
72370;BME280;60343;-32.030;115.880;2023-05-23T09:57:11;101914.94;;;17.49;88.56
72370;BME280;60343;-32.030;115.880;2023-05-23T09:59:52;101916.63;;;17.50;89.01
72370;BME280;60343;-32.030;115.880;2023-05-23T10:02:50;101922.06;;;17.50;89.26
72370;BME280;60343;-32.030;115.880;2023-05-23T10:05:44;101933.50;;;17.52;90.06
72370;BME280;60343;-32.030;115.880;2023-05-23T10:08:21;101927.72;;;17.70;89.46
72370;BME280;60343;-32.030;115.880;2023-05-23T10:14:29;101926.41;;;17.66;90.35
72370;BME280;60343;-32.030;115.880;2023-05-23T10:17:10;101944.53;;;17.65;90.97
72370;BME280;60343;-32.030;115.880;2023-05-23T10:19:54;101942.47;;;17.67;90.61
72370;BME280;60343;-32.030;115.880;2023-05-23T10:22:40;101932.56;;;17.74;90.14
72370;BME280;60343;-32.030;115.880;2023-05-23T10:25:15;101932.09;;;17.71;90.45
72370;BME280;60343;-32.030;115.880;2023-05-23T10:27:55;101931.22;;;17.85;90.22
72370;BME280;60343;-32.030;115.880;2023-05-23T10:30:31;101924.81;;;17.92;89.75
72370;BME280;60343;-32.030;115.880;2023-05-23T10:33:06;101927.28;;;17.87;89.91
72370;BME280;60343;-32.030;115.880;2023-05-23T10:35:47;101920.00;;;17.88;90.62
72370;BME280;60343;-32.030;115.880;2023-05-23T10:38:35;101923.34;;;17.90;90.23
72370;BME280;60343;-32.030;115.880;2023-05-23T10:41:15;101925.06;;;17.97;90.14
72370;BME280;60343;-32.030;115.880;2023-05-23T10:43:56;101926.38;;;17.80;90.62
72370;BME280;60343;-32.030;115.880;2023-05-23T10:46:49;101921.06;;;17.72;91.63
72370;BME280;60343;-32.030;115.880;2023-05-23T10:49:38;101924.69;;;17.79;91.32
72370;BME280;60343;-32.030;115.880;2023-05-23T10:52:16;101925.06;;;17.76;91.65
72370;BME280;60343;-32.030;115.880;2023-05-23T10:54:57;101921.28;;;17.92;90.87
72370;BME280;60343;-32.030;115.880;2023-05-23T10:57:31;101935.47;;;17.94;90.71
72370;BME280;60343;-32.030;115.880;2023-05-23T11:00:13;101937.09;;;17.88;90.95
72370;BME280;60343;-32.030;115.880;2023-05-23T11:02:53;101942.91;;;17.85;91.09
72370;BME280;60343;-32.030;115.880;2023-05-23T11:05:29;101946.81;;;17.83;91.54
72370;BME280;60343;-32.030;115.880;2023-05-23T11:08:13;101948.94;;;17.87;92.04
72370;BME280;60343;-32.030;115.880;2023-05-23T11:11:02;101953.78;;;17.92;91.47
72370;BME280;60343;-32.030;115.880;2023-05-23T11:13:54;101957.59;;;17.97;90.61
72370;BME280;60343;-32.030;115.880;2023-05-23T11:16:30;101959.41;;;17.90;90.88
72370;BME280;60343;-32.030;115.880;2023-05-23T11:19:24;101955.91;;;17.96;91.27
72370;BME280;60343;-32.030;115.880;2023-05-23T11:22:00;101949.34;;;17.84;91.26
72370;BME280;60343;-32.030;115.880;2023-05-23T11:24:49;101947.66;;;17.83;91.17
72370;BME280;60343;-32.030;115.880;2023-05-23T11:27:36;101941.75;;;17.94;90.87
72370;BME280;60343;-32.030;115.880;2023-05-23T11:30:12;101944.75;;;17.85;90.39
72370;BME280;60343;-32.030;115.880;2023-05-23T11:32:51;101954.50;;;17.79;91.47
72370;BME280;60343;-32.030;115.880;2023-05-23T11:35:26;101959.66;;;17.74;91.66
72370;BME280;60343;-32.030;115.880;2023-05-23T11:38:04;101961.06;;;17.70;92.03
72370;BME280;60343;-32.030;115.880;2023-05-23T11:40:39;101961.06;;;17.70;92.13
72370;BME280;60343;-32.030;115.880;2023-05-23T11:43:20;101955.84;;;17.69;92.44
72370;BME280;60343;-32.030;115.880;2023-05-23T11:45:54;101961.25;;;17.69;92.42
72370;BME280;60343;-32.030;115.880;2023-05-23T11:48:29;101960.84;;;17.72;92.23
72370;BME280;60343;-32.030;115.880;2023-05-23T11:51:04;101964.78;;;17.69;92.47
72370;BME280;60343;-32.030;115.880;2023-05-23T11:53:38;101978.53;;;17.68;92.47
72370;BME280;60343;-32.030;115.880;2023-05-23T11:56:15;101993.94;;;17.67;93.03
72370;BME280;60343;-32.030;115.880;2023-05-23T11:58:55;102003.72;;;17.68;93.28
72370;BME280;60343;-32.030;115.880;2023-05-23T12:01:30;101991.41;;;17.66;93.16
72370;BME280;60343;-32.030;115.880;2023-05-23T12:04:10;101993.09;;;17.67;93.62
72370;BME280;60343;-32.030;115.880;2023-05-23T12:06:47;101987.88;;;17.65;93.72
72370;BME280;60343;-32.030;115.880;2023-05-23T12:09:22;101985.16;;;17.65;93.68
72370;BME280;60343;-32.030;115.880;2023-05-23T12:11:57;101987.22;;;17.63;93.57
72370;BME280;60343;-32.030;115.880;2023-05-23T12:14:37;101977.31;;;17.70;93.52
72370;BME280;60343;-32.030;115.880;2023-05-23T12:17:12;101979.53;;;17.67;93.37
72370;BME280;60343;-32.030;115.880;2023-05-23T12:19:46;101983.47;;;17.64;93.90
72370;BME280;60343;-32.030;115.880;2023-05-23T12:22:24;101984.91;;;17.60;94.19
72370;BME280;60343;-32.030;115.880;2023-05-23T12:24:59;101988.91;;;17.64;94.10
72370;BME280;60343;-32.030;115.880;2023-05-23T12:27:34;101976.91;;;17.73;92.30
72370;BME280;60343;-32.030;115.880;2023-05-23T12:30:16;101984.50;;;17.63;92.35
72370;BME280;60343;-32.030;115.880;2023-05-23T12:32:51;101985.97;;;17.66;91.98
72370;BME280;60343;-32.030;115.880;2023-05-23T12:35:26;101986.91;;;17.73;91.59
72370;BME280;60343;-32.030;115.880;2023-05-23T12:38:00;101968.31;;;17.84;89.76
72370;BME280;60343;-32.030;115.880;2023-05-23T12:40:35;101973.19;;;17.74;90.32
72370;BME280;60343;-32.030;115.880;2023-05-23T12:43:10;101977.59;;;17.75;90.68
72370;BME280;60343;-32.030;115.880;2023-05-23T12:45:50;101966.47;;;17.70;90.16
72370;BME280;60343;-32.030;115.880;2023-05-23T12:48:25;101973.28;;;17.66;90.55
72370;BME280;60343;-32.030;115.880;2023-05-23T12:51:00;101987.47;;;17.53;91.26
72370;BME280;60343;-32.030;115.880;2023-05-23T12:53:34;101984.50;;;17.48;91.74
72370;BME280;60343;-32.030;115.880;2023-05-23T12:56:09;101994.59;;;17.54;91.72
72370;BME280;60343;-32.030;115.880;2023-05-23T12:58:43;101989.94;;;17.63;91.18
72370;BME280;60343;-32.030;115.880;2023-05-23T13:01:24;101985.53;;;17.62;91.38
72370;BME280;60343;-32.030;115.880;2023-05-23T13:04:00;101973.09;;;17.53;91.31
72370;BME280;60343;-32.030;115.880;2023-05-23T13:06:34;101963.69;;;17.49;91.96
72370;BME280;60343;-32.030;115.880;2023-05-23T13:09:09;101956.13;;;17.44;92.27
72370;BME280;60343;-32.030;115.880;2023-05-23T13:11:43;101956.97;;;17.45;92.76